Klickitat, WA

6:13 AM PDT on August 28, 2014 (GMT -0700)
Big Rock Ranch | Change Station
CLOSE
Current Station
Personal Weather Station
Location: Goldendale, WA
Elevation: 1549 ft
Nearby Weather Stations

Elev 1549 ft 45.85 °N, 120.99 °W | Updated 2 seconds ago

Clear
Clear
60.6 °F
Feels Like 60.6 °F
N
0.0
Wind Variable Wind from NW
Gusts 0.0 mph

Today
High -- | Low -- °F
--% Chance of Precip.
Yesterday
High -- | Low -- °F
Precip. -- in
6:20 AM 7:49 PM
Waxing Crescent, 8% visible
Pressure 30.00 in
Visibility 10.0 miles
Clouds Clear
Dew Point 53 °F
Humidity 75%
Rainfall 0.00 in
Snow Depth Not available.
UV 0 out of 12
Pollen 4.90 out of 12
Air Quality Not available.
Flu Activity Not available.
METAR KDLS 281253Z AUTO 31012KT 10SM CLR 20/14 A3000 RMK AO2 SLP157 T02000139

More Conditions Fewer Conditions

Pressure 30.00 in
Visibility 10.0 miles
Clouds Clear
Dew Point 53 °F
Humidity 75%
Rainfall 0.00 in
Snow Depth Not available.
UV 0 out of 12
Pollen 4.90 out of 12
Air Quality Not available.
Flu Activity Not available.
METAR KDLS 281253Z AUTO 31012KT 10SM CLR 20/14 A3000 RMK AO2 SLP157 T02000139

More Conditions Fewer Conditions

10-Day Weather Forecast

Almanac

Astronomy

Aug. 28, 2014 Rise Set
Actual Time 6:20 AM PDT 7:49 PM PDT
Civil Twilight 5:49 AM PDT 8:20 PM PDT
Nautical Twilight 5:11 AM PDT 8:58 PM PDT
Astronomical Twilight 4:31 AM PDT 9:38 PM PDT
Moon 9:29 AM PDT 9:03 PM PDT
Length of Visible Light 14h 31m
Length of Day
13h 29m
Tomorrow will be 3m 4s shorter.
Waxing Crescent, 8% of the Moon is Illuminated
Today
Waxing Crescent
Sep 2
First Quarter
Sep 8
Full
Sep 15
Last Quarter
Sep 24
New

Today's Extremes

State Highs State Lows

Community

WunderPhotos

Upload Photos

1,747,947 photos uploaded!

Nearby

Snow Depth

Station Depth Elevation
Surprise Lakes 0 in 4250 ft
Lost Horse 0 in 5000 ft
Potato Hill 0 in 4500 ft
Spencer Meadow 0 in 3400 ft
Lone Pine 0 in 3800 ft

Earthquake Activity

City Distance Mag. Time & Date
No recent earthquake activity has been reported nearby.
Minimum magnitude displayed is 2.5.

Coastal Water Temperatures

Place Temperature
No Stations Reporting

Nearby Weather Stations